Time;durP1;ratioP1;P1;durP2;ratioP2;P2;SDS_P1;SDS_P2;PMS_P1;PMS_P2;Temp;Humidity;BMP_temperature;BMP_pressure;BME280_temperature;BME280_humidity;BME280_pressure;Samples;Min_cycle;Max_cycle;Signal;HPM_P1;HPM_P2
2023/08/20 00:01:35;;;;;;;14.10;8.65;;;19.90;87.20;;;;;;6224657;23;20265;-83
2023/08/20 00:04:02;;;;;;;13.00;8.90;;;19.90;87.30;;;;;;6251971;23;20034;-82
2023/08/20 00:06:28;;;;;;;13.00;10.18;;;19.90;87.30;;;;;;6221638;23;20378;-83
2023/08/20 00:08:54;;;;;;;17.90;11.27;;;19.90;86.60;;;;;;6224088;23;20012;-83
2023/08/20 00:11:20;;;;;;;15.27;11.30;;;19.90;85.70;;;;;;6251010;23;20067;-82
2023/08/20 00:13:46;;;;;;;17.27;10.38;;;19.80;85.10;;;;;;6250869;23;20004;-83
2023/08/20 00:16:12;;;;;;;11.73;9.75;;;19.80;84.60;;;;;;6251560;23;20024;-83
2023/08/20 00:18:39;;;;;;;14.27;9.80;;;19.80;84.60;;;;;;6250298;23;19996;-84
2023/08/20 00:21:06;;;;;;;14.35;9.93;;;19.90;84.90;;;;;;6249559;23;20243;-84
2023/08/20 00:23:32;;;;;;;15.23;10.73;;;19.90;85.20;;;;;;6250976;23;19996;-83
2023/08/20 00:25:58;;;;;;;16.08;11.20;;;19.80;85.30;;;;;;6251880;23;20070;-83
2023/08/20 00:28:23;;;;;;;14.82;10.65;;;19.80;84.60;;;;;;6251095;23;20030;-84
2023/08/20 00:30:49;;;;;;;13.32;10.52;;;19.80;83.20;;;;;;6251624;23;20253;-84
2023/08/20 00:33:15;;;;;;;15.18;10.70;;;19.80;83.10;;;;;;6251514;23;20024;-84
2023/08/20 00:35:41;;;;;;;15.55;11.35;;;19.80;83.10;;;;;;6223426;23;20007;-84
2023/08/20 00:38:10;;;;;;;18.45;10.57;;;19.80;82.80;;;;;;6224387;23;20002;-84
2023/08/20 00:40:35;;;;;;;17.30;12.00;;;19.80;82.40;;;;;;6251263;23;20071;-84
2023/08/20 00:43:01;;;;;;;15.00;11.27;;;19.80;82.60;;;;;;6251358;23;20031;-84
2023/08/20 00:45:27;;;;;;;14.27;10.93;;;19.80;82.30;;;;;;6251580;23;20054;-83
2023/08/20 00:47:53;;;;;;;18.67;11.65;;;19.80;81.00;;;;;;6251548;23;20024;-84
2023/08/20 00:50:19;;;;;;;18.00;11.02;;;19.80;81.20;;;;;;6249337;23;20000;-84
2023/08/20 00:52:46;;;;;;;13.55;10.48;;;19.80;81.20;;;;;;6224254;23;20004;-83
2023/08/20 00:55:15;;;;;;;13.52;10.95;;;19.80;81.60;;;;;;6224148;23;19997;-83
2023/08/20 00:57:42;;;;;;;17.40;10.80;;;19.80;81.60;;;;;;6251387;23;20318;-84
2023/08/20 01:00:10;;;;;;;15.02;11.38;;;19.70;81.00;;;;;;6223620;23;20087;-84
2023/08/20 01:02:40;;;;;;;18.80;11.38;;;19.70;80.80;;;;;;6223295;23;20004;-83
2023/08/20 01:05:10;;;;;;;15.70;11.90;;;19.60;80.40;;;;;;6250047;23;20130;-84
2023/08/20 01:07:56;;;;;;;17.00;12.35;;;19.60;79.80;;;;;;6223721;23;20008;-83
2023/08/20 01:10:33;;;;;;;13.35;11.50;;;19.60;78.80;;;;;;6250065;23;20000;-84
2023/08/20 01:13:00;;;;;;;13.25;11.38;;;19.50;78.30;;;;;;6251268;23;20001;-84
2023/08/20 01:15:26;;;;;;;15.38;11.75;;;19.50;78.60;;;;;;6224048;23;20026;-84
2023/08/20 01:17:52;;;;;;;15.65;11.80;;;19.50;78.00;;;;;;6250097;23;20378;-84
2023/08/20 01:20:19;;;;;;;16.70;11.65;;;19.40;77.60;;;;;;6249286;23;20011;-83
2023/08/20 01:23:00;;;;;;;14.93;12.43;;;19.40;76.90;;;;;;6251060;23;20008;-84
2023/08/20 01:25:47;;;;;;;17.08;11.85;;;19.50;76.90;;;;;;6250957;23;20004;-83
2023/08/20 01:28:24;;;;;;;15.25;12.32;;;19.50;76.60;;;;;;6163497;23;20008;-84
2023/08/20 01:30:51;;;;;;;13.50;11.07;;;19.50;76.50;;;;;;6224479;23;20008;-84
2023/08/20 01:33:19;;;;;;;16.55;11.63;;;19.50;76.50;;;;;;6251169;23;20000;-84
2023/08/20 01:35:45;;;;;;;19.17;13.50;;;19.40;76.40;;;;;;6249667;23;19996;-84
2023/08/20 01:38:11;;;;;;;16.73;11.90;;;19.40;76.20;;;;;;6225031;23;20002;-84
2023/08/20 01:40:36;;;;;;;19.77;12.93;;;19.30;75.70;;;;;;6250346;23;20012;-83
2023/08/20 01:43:02;;;;;;;16.38;13.00;;;19.40;75.50;;;;;;6251449;23;20011;-83
2023/08/20 01:45:28;;;;;;;17.75;13.38;;;19.30;74.40;;;;;;6251951;23;20004;-83
2023/08/20 01:47:54;;;;;;;15.38;11.73;;;19.30;74.30;;;;;;6252539;23;20124;-83
2023/08/20 01:50:20;;;;;;;18.92;12.82;;;19.40;74.20;;;;;;6249829;23;20004;-84
2023/08/20 01:52:45;;;;;;;13.55;12.13;;;19.40;74.80;;;;;;6251015;23;20358;-84
2023/08/20 01:55:11;;;;;;;16.88;11.60;;;19.30;74.90;;;;;;6250465;23;20004;-84
2023/08/20 01:57:37;;;;;;;15.82;12.27;;;19.30;75.00;;;;;;6223194;23;20016;-84
2023/08/20 02:00:08;;;;;;;19.45;12.10;;;19.30;75.90;;;;;;6251424;23;20004;-84
2023/08/20 02:02:34;;;;;;;16.98;12.82;;;19.20;75.00;;;;;;6224783;23;20452;-83
2023/08/20 02:05:00;;;;;;;17.25;12.50;;;19.20;73.70;;;;;;6224319;23;20009;-83
2023/08/20 02:07:26;;;;;;;15.95;12.27;;;19.20;73.50;;;;;;6248365;23;20321;-83
2023/08/20 02:09:51;;;;;;;16.77;12.57;;;19.20;72.70;;;;;;6249622;23;20042;-84
2023/08/20 02:12:18;;;;;;;18.25;12.70;;;19.20;73.10;;;;;;6223679;23;20014;-84
2023/08/20 02:14:44;;;;;;;19.90;13.60;;;19.20;72.70;;;;;;6250781;23;20280;-84
2023/08/20 02:17:12;;;;;;;19.20;13.02;;;19.20;72.20;;;;;;6223398;23;20001;-84
2023/08/20 02:19:38;;;;;;;18.10;14.57;;;19.10;71.00;;;;;;6251507;23;20000;-85
2023/08/20 02:22:04;;;;;;;23.63;15.10;;;19.10;70.90;;;;;;6248801;23;20015;-85
2023/08/20 02:24:30;;;;;;;18.67;14.68;;;19.10;70.10;;;;;;6250452;23;20004;-85
2023/08/20 02:26:56;;;;;;;17.52;13.68;;;19.10;68.80;;;;;;6250262;23;20007;-84
2023/08/20 02:29:22;;;;;;;16.05;13.23;;;19.10;68.20;;;;;;6249787;23;20008;-84
2023/08/20 02:31:48;;;;;;;18.98;13.48;;;19.20;67.50;;;;;;6249337;23;20071;-84
2023/08/20 02:34:14;;;;;;;18.17;14.32;;;19.20;68.70;;;;;;6249778;23;20235;-84
2023/08/20 02:36:39;;;;;;;17.13;13.07;;;19.20;70.20;;;;;;6248760;23;20000;-84
2023/08/20 02:39:07;;;;;;;17.45;13.80;;;19.10;69.80;;;;;;6249860;23;20004;-85
2023/08/20 02:41:35;;;;;;;17.27;12.73;;;19.10;70.30;;;;;;6250904;23;20004;-84
2023/08/20 02:44:02;;;;;;;19.30;13.43;;;19.10;69.90;;;;;;6249667;23;20001;-84
2023/08/20 02:46:27;;;;;;;15.52;12.48;;;19.10;70.20;;;;;;6250178;23;20000;-84
2023/08/20 02:48:53;;;;;;;18.20;14.43;;;19.10;69.40;;;;;;6248939;23;20266;-84
2023/08/20 02:51:19;;;;;;;20.13;15.05;;;19.10;68.90;;;;;;6248966;23;20000;-84
2023/08/20 02:53:44;;;;;;;18.65;14.95;;;19.00;66.90;;;;;;6222712;23;19996;-84
2023/08/20 02:56:11;;;;;;;20.88;15.15;;;19.00;65.90;;;;;;6249362;23;20000;-85
2023/08/20 02:58:37;;;;;;;19.95;13.85;;;19.00;65.50;;;;;;6250362;23;20314;-85
2023/08/20 03:01:06;;;;;;;16.45;13.73;;;19.00;66.10;;;;;;6249229;23;19996;-83
2023/08/20 03:03:33;;;;;;;16.17;13.98;;;19.00;68.00;;;;;;6221475;23;20243;-82
2023/08/20 03:05:58;;;;;;;17.00;13.68;;;18.90;70.10;;;;;;6248159;23;20381;-83
2023/08/20 03:08:24;;;;;;;14.35;12.85;;;18.90;70.30;;;;;;6250170;23;20000;-83
2023/08/20 03:10:50;;;;;;;16.42;12.50;;;18.80;71.50;;;;;;6248141;23;20000;-83
2023/08/20 03:13:16;;;;;;;16.05;13.10;;;18.80;72.20;;;;;;6222659;23;20004;-85
2023/08/20 03:15:41;;;;;;;16.77;13.18;;;18.80;71.50;;;;;;6250012;23;20358;-85
2023/08/20 03:18:07;;;;;;;22.17;15.30;;;18.70;69.90;;;;;;6249600;23;20000;-85
2023/08/20 03:20:34;;;;;;;20.02;16.58;;;18.70;68.90;;;;;;6248621;23;20083;-85
2023/08/20 03:23:00;;;;;;;18.17;15.05;;;18.70;67.50;;;;;;6250180;23;20080;-84
2023/08/20 03:25:25;;;;;;;20.55;15.40;;;18.70;66.30;;;;;;6250358;23;20028;-86
2023/08/20 03:27:52;;;;;;;17.10;13.55;;;18.70;65.70;;;;;;6249964;23;20369;-85
2023/08/20 03:30:17;;;;;;;15.05;13.15;;;18.60;67.30;;;;;;6249181;23;20007;-85
2023/08/20 03:32:43;;;;;;;18.92;13.30;;;18.60;67.70;;;;;;6249032;23;20000;-85
2023/08/20 03:35:09;;;;;;;18.48;14.43;;;18.50;67.90;;;;;;6249542;23;20056;-85
2023/08/20 03:37:35;;;;;;;21.55;15.25;;;18.50;66.60;;;;;;6249459;23;20001;-85
2023/08/20 03:40:04;;;;;;;20.23;15.88;;;18.50;65.20;;;;;;6249583;23;20566;-84
2023/08/20 03:42:30;;;;;;;23.95;18.13;;;18.50;62.60;;;;;;6249851;23;20066;-84
2023/08/20 03:44:56;;;;;;;19.42;17.08;;;18.70;61.60;;;;;;6250067;23;20265;-85
2023/08/20 03:47:22;;;;;;;20.77;16.33;;;18.70;60.30;;;;;;6248016;23;20004;-85
2023/08/20 03:49:48;;;;;;;20.70;16.20;;;18.70;61.00;;;;;;6247157;23;20062;-85
2023/08/20 03:52:14;;;;;;;20.08;17.60;;;18.70;62.20;;;;;;6246697;23;20001;-84
2023/08/20 03:54:41;;;;;;;16.73;14.73;;;18.60;63.60;;;;;;6222546;23;19997;-85
2023/08/20 03:57:07;;;;;;;18.20;15.10;;;18.50;64.00;;;;;;6221958;23;20020;-85
2023/08/20 03:59:33;;;;;;;19.30;15.20;;;18.50;64.40;;;;;;6247153;23;20016;-85
2023/08/20 04:01:59;;;;;;;18.60;15.25;;;18.50;63.40;;;;;;6219844;23;20008;-85
2023/08/20 04:04:25;;;;;;;20.88;15.90;;;18.50;63.60;;;;;;6248761;23;20471;-85
2023/08/20 04:06:51;;;;;;;19.23;16.50;;;18.50;62.90;;;;;;6220950;23;20004;-85
2023/08/20 04:09:18;;;;;;;21.98;17.52;;;18.50;61.50;;;;;;6222741;23;20008;-84
2023/08/20 04:11:43;;;;;;;24.23;18.23;;;18.60;60.90;;;;;;6248653;23;20005;-84
2023/08/20 04:14:09;;;;;;;23.25;19.38;;;18.60;59.00;;;;;;6249144;23;20023;-85
2023/08/20 04:16:35;;;;;;;23.23;19.20;;;18.70;59.10;;;;;;6248702;23;20000;-85
2023/08/20 04:19:01;;;;;;;21.52;16.77;;;18.80;57.60;;;;;;6248809;23;20071;-85
2023/08/20 04:21:27;;;;;;;24.05;17.33;;;18.90;57.70;;;;;;6246632;23;20024;-84
2023/08/20 04:23:52;;;;;;;21.85;16.90;;;18.90;59.00;;;;;;6247990;23;20030;-85
2023/08/20 04:26:18;;;;;;;18.75;16.13;;;18.80;59.50;;;;;;6250208;23;20046;-85
2023/08/20 04:28:45;;;;;;;18.77;16.55;;;18.80;60.50;;;;;;6224448;23;20008;-85
2023/08/20 04:31:11;;;;;;;18.33;16.20;;;18.70;61.60;;;;;;6225118;23;20066;-85
2023/08/20 04:33:37;;;;;;;20.80;15.93;;;18.70;61.20;;;;;;6251091;23;20004;-85
2023/08/20 04:36:03;;;;;;;19.52;17.40;;;18.70;60.70;;;;;;6249700;23;20000;-85
2023/08/20 04:38:29;;;;;;;25.73;18.08;;;18.70;60.80;;;;;;6251215;23;20007;-85
2023/08/20 04:40:55;;;;;;;21.80;16.88;;;18.70;60.70;;;;;;6224588;23;20012;-85
2023/08/20 04:43:21;;;;;;;20.98;18.67;;;18.70;59.20;;;;;;6251224;23;20067;-85
2023/08/20 04:45:46;;;;;;;21.08;16.33;;;18.80;60.20;;;;;;6250351;23;20298;-84
2023/08/20 04:48:12;;;;;;;23.45;17.85;;;18.80;60.10;;;;;;6250872;23;20004;-85
2023/08/20 04:50:38;;;;;;;24.25;16.38;;;18.80;61.00;;;;;;6249303;23;20008;-85
2023/08/20 04:53:04;;;;;;;20.27;17.00;;;18.80;61.80;;;;;;6250404;23;20067;-85
2023/08/20 04:55:30;;;;;;;20.85;17.23;;;18.80;61.10;;;;;;6251065;23;20004;-86
2023/08/20 04:57:56;;;;;;;21.67;16.65;;;18.90;61.80;;;;;;6251181;23;20070;-85
2023/08/20 05:00:22;;;;;;;19.30;15.00;;;18.90;61.50;;;;;;6251086;23;20297;-86
2023/08/20 05:02:48;;;;;;;21.08;15.05;;;19.00;61.90;;;;;;6250857;23;20004;-85
2023/08/20 05:05:14;;;;;;;17.48;14.40;;;19.00;62.70;;;;;;6221742;23;20023;-85
2023/08/20 05:07:42;;;;;;;17.63;14.15;;;19.00;64.80;;;;;;6250170;23;20000;-85
2023/08/20 05:10:08;;;;;;;18.58;14.95;;;19.00;65.50;;;;;;6250319;23;20004;-85
2023/08/20 05:12:34;;;;;;;18.85;14.18;;;19.00;68.10;;;;;;6249988;23;20000;-85
2023/08/20 05:15:03;;;;;;;15.70;12.10;;;19.00;68.20;;;;;;6223920;23;20083;-85
2023/08/20 05:17:29;;;;;;;17.92;13.70;;;19.10;68.80;;;;;;6250035;23;20071;-85
2023/08/20 05:19:54;;;;;;;17.52;12.90;;;19.10;69.90;;;;;;6249679;23;20031;-85
2023/08/20 05:22:20;;;;;;;18.77;14.10;;;19.20;70.00;;;;;;6221124;23;20011;-86
2023/08/20 05:24:46;;;;;;;15.60;12.55;;;19.20;71.40;;;;;;6250326;23;20076;-86
2023/08/20 05:27:17;;;;;;;15.10;11.98;;;19.20;71.50;;;;;;6250372;23;20035;-85
2023/08/20 05:29:43;;;;;;;14.18;11.90;;;19.30;71.50;;;;;;6249250;23;20043;-85
2023/08/20 05:32:09;;;;;;;16.67;11.20;;;19.40;72.30;;;;;;6249779;23;19997;-86
2023/08/20 05:34:35;;;;;;;16.05;10.57;;;19.50;74.30;;;;;;6249868;23;20023;-84
2023/08/20 05:37:01;;;;;;;16.35;10.80;;;19.70;78.50;;;;;;6248504;23;20000;-85
2023/08/20 05:39:27;;;;;;;18.33;11.73;;;19.70;80.10;;;;;;6250130;23;20011;-85
2023/08/20 05:41:54;;;;;;;14.88;12.00;;;19.70;81.10;;;;;;6250622;23;20004;-85
2023/08/20 05:44:20;;;;;;;18.05;12.27;;;19.70;80.00;;;;;;6222819;23;20083;-85
2023/08/20 05:46:46;;;;;;;14.43;11.70;;;19.80;79.30;;;;;;6249917;23;20032;-85
2023/08/20 05:49:15;;;;;;;17.70;11.73;;;19.90;79.20;;;;;;6249844;23;20024;-85
2023/08/20 05:51:42;;;;;;;14.68;10.25;;;20.00;80.00;;;;;;6248746;23;20387;-85
2023/08/20 05:54:10;;;;;;;19.80;10.63;;;20.10;80.70;;;;;;6249786;23;20031;-85
2023/08/20 05:56:37;;;;;;;17.15;10.90;;;20.40;83.60;;;;;;6250683;23;20062;-84
2023/08/20 05:59:03;;;;;;;13.50;10.43;;;20.50;85.40;;;;;;6251452;23;20000;-83
2023/08/20 06:01:29;;;;;;;14.88;10.25;;;20.60;85.90;;;;;;6250316;23;20000;-84
2023/08/20 06:03:54;;;;;;;12.55;9.95;;;20.80;88.00;;;;;;6250236;23;20004;-83
2023/08/20 06:06:23;;;;;;;17.42;11.32;;;21.00;89.30;;;;;;6248590;23;20004;-84
2023/08/20 06:08:49;;;;;;;13.55;10.48;;;21.30;89.60;;;;;;6224079;23;20008;-85
2023/08/20 06:11:19;;;;;;;13.20;10.07;;;21.50;90.70;;;;;;6250013;23;20306;-86
2023/08/20 06:13:45;;;;;;;13.70;9.75;;;21.70;92.10;;;;;;6223295;23;20257;-78
2023/08/20 06:16:10;;;;;;;12.88;9.43;;;21.90;92.80;;;;;;6250104;23;19997;-77
2023/08/20 06:18:36;;;;;;;14.68;10.77;;;22.00;93.70;;;;;;6250223;23;19996;-86
2023/08/20 06:21:03;;;;;;;14.75;12.32;;;22.00;87.40;;;;;;6248608;23;20004;-85
2023/08/20 06:23:29;;;;;;;18.42;12.98;;;21.90;85.70;;;;;;6222485;23;20362;-85
2023/08/20 06:25:54;;;;;;;15.15;11.98;;;21.70;86.80;;;;;;6250436;23;20000;-85
2023/08/20 06:28:21;;;;;;;13.02;11.27;;;21.60;87.70;;;;;;6250349;23;20000;-85
2023/08/20 06:30:46;;;;;;;17.75;12.68;;;21.40;86.20;;;;;;6250657;23;20000;-84
2023/08/20 06:33:13;;;;;;;15.80;12.07;;;21.30;86.40;;;;;;6251423;23;20034;-84
2023/08/20 06:35:41;;;;;;;14.77;11.85;;;21.40;85.90;;;;;;6249898;23;20423;-84
2023/08/20 06:38:07;;;;;;;15.20;12.10;;;21.40;86.20;;;;;;6251466;23;19996;-84
2023/08/20 06:40:33;;;;;;;17.63;12.70;;;21.50;86.10;;;;;;6250369;23;20028;-84
2023/08/20 06:42:58;;;;;;;15.55;11.43;;;21.50;90.60;;;;;;6249800;23;20028;-84
2023/08/20 06:45:24;;;;;;;15.77;11.05;;;21.50;89.40;;;;;;6223132;23;20008;-85
2023/08/20 06:47:50;;;;;;;13.00;11.40;;;21.80;89.40;;;;;;6249350;23;20034;-84
2023/08/20 06:50:16;;;;;;;14.82;11.15;;;22.00;90.60;;;;;;6246687;23;20004;-84
2023/08/20 06:52:43;;;;;;;14.15;10.48;;;22.30;91.40;;;;;;6249876;23;20000;-84
2023/08/20 06:55:08;;;;;;;12.98;9.98;;;22.80;94.90;;;;;;6250015;23;20397;-84
2023/08/20 06:57:34;;;;;;;14.15;10.00;;;23.00;95.80;;;;;;6249752;23;20016;-84
2023/08/20 07:00:00;;;;;;;14.50;10.32;;;23.50;97.20;;;;;;6249784;23;20071;-84
2023/08/20 07:02:26;;;;;;;12.75;8.63;;;23.70;98.00;;;;;;6249449;23;20000;-84
2023/08/20 07:04:52;;;;;;;11.02;9.32;;;23.80;98.00;;;;;;6221817;23;20004;-84
2023/08/20 07:07:18;;;;;;;12.63;8.85;;;24.10;98.00;;;;;;6247580;23;20019;-84
2023/08/20 07:09:46;;;;;;;11.95;9.05;;;24.40;98.00;;;;;;6249283;23;20004;-83
2023/08/20 07:12:12;;;;;;;14.43;9.60;;;24.50;97.40;;;;;;6249604;23;19996;-84
2023/08/20 07:14:38;;;;;;;13.05;9.80;;;24.50;97.50;;;;;;6249505;23;20007;-85
2023/08/20 07:17:05;;;;;;;12.32;9.07;;;24.50;97.00;;;;;;6248262;23;20366;-83
2023/08/20 07:19:31;;;;;;;12.93;9.15;;;24.70;96.90;;;;;;6249038;23;20008;-84
2023/08/20 07:21:56;;;;;;;12.50;8.88;;;24.60;96.70;;;;;;6221190;23;20008;-83
2023/08/20 07:24:25;;;;;;;12.25;8.68;;;24.60;96.80;;;;;;6249087;23;20000;-83
2023/08/20 07:26:51;;;;;;;13.18;9.50;;;24.90;97.10;;;;;;6248961;23;20000;-84
2023/08/20 07:29:17;;;;;;;16.13;10.00;;;25.10;95.80;;;;;;6222103;23;20032;-83
2023/08/20 07:31:43;;;;;;;13.00;9.07;;;25.30;95.60;;;;;;6249117;23;20003;-84
2023/08/20 07:34:09;;;;;;;18.42;10.63;;;25.40;95.40;;;;;;6249590;23;20358;-84
2023/08/20 07:36:35;;;;;;;12.77;9.27;;;25.70;94.20;;;;;;6247438;23;20039;-84
2023/08/20 07:39:01;;;;;;;16.50;11.00;;;25.60;94.00;;;;;;6249521;23;20380;-84
2023/08/20 07:41:26;;;;;;;14.48;10.23;;;25.40;95.30;;;;;;6248817;23;20063;-84
2023/08/20 07:43:52;;;;;;;15.27;10.07;;;25.30;95.60;;;;;;6248266;23;20008;-83
2023/08/20 07:46:18;;;;;;;14.40;9.63;;;25.30;95.70;;;;;;6248922;23;20075;-83
2023/08/20 07:48:44;;;;;;;12.32;9.10;;;25.40;95.70;;;;;;6249495;23;20082;-83
2023/08/20 07:51:10;;;;;;;12.18;9.20;;;25.60;95.00;;;;;;6247793;23;19996;-84
2023/08/20 07:53:36;;;;;;;11.57;9.07;;;25.90;94.90;;;;;;6248857;23;20003;-84
2023/08/20 07:56:02;;;;;;;12.50;8.15;;;26.00;94.10;;;;;;6247744;23;19997;-83
2023/08/20 07:58:28;;;;;;;13.57;8.35;;;26.50;93.70;;;;;;6248632;23;20035;-83
2023/08/20 08:00:55;;;;;;;13.88;8.18;;;26.70;92.50;;;;;;6251043;23;20355;-83
2023/08/20 08:03:20;;;;;;;11.82;8.25;;;26.90;92.50;;;;;;6251008;23;20004;-83
2023/08/20 08:05:48;;;;;;;10.95;7.88;;;27.80;90.10;;;;;;6249009;23;20011;-83
2023/08/20 08:08:15;;;;;;;11.23;8.10;;;28.70;88.10;;;;;;6250865;23;20121;-83
2023/08/20 08:10:41;;;;;;;11.95;7.90;;;29.40;85.80;;;;;;6249944;23;20011;-83
2023/08/20 08:13:06;;;;;;;9.35;6.82;;;29.80;83.70;;;;;;6249324;23;19996;-82
2023/08/20 08:15:32;;;;;;;11.77;7.65;;;30.40;83.60;;;;;;6223156;23;20004;-82
2023/08/20 08:17:58;;;;;;;14.57;7.85;;;30.50;82.00;;;;;;6250525;23;19997;-82
2023/08/20 08:20:24;;;;;;;12.27;7.40;;;30.30;82.80;;;;;;6248609;23;20321;-82
2023/08/20 08:22:49;;;;;;;11.63;7.22;;;30.40;82.40;;;;;;6251391;23;20062;-82
2023/08/20 08:25:15;;;;;;;10.45;8.00;;;30.20;83.00;;;;;;6251508;23;20362;-82
2023/08/20 08:27:41;;;;;;;12.65;8.10;;;30.20;82.00;;;;;;6250392;23;20026;-82
2023/08/20 08:30:07;;;;;;;10.13;7.28;;;30.00;83.10;;;;;;6250478;23;20004;-82
2023/08/20 08:32:33;;;;;;;11.20;8.13;;;29.90;82.60;;;;;;6250566;23;19996;-82
2023/08/20 08:34:58;;;;;;;10.45;7.55;;;29.70;84.20;;;;;;6250775;23;19997;-82
2023/08/20 08:37:24;;;;;;;12.27;7.75;;;30.30;82.90;;;;;;6249135;23;19996;-81
2023/08/20 08:39:49;;;;;;;12.23;7.93;;;30.80;81.10;;;;;;6251487;23;20028;-82
2023/08/20 08:42:16;;;;;;;11.55;7.43;;;30.80;81.20;;;;;;6250087;23;19996;-82
2023/08/20 08:44:43;;;;;;;8.88;6.88;;;31.40;79.60;;;;;;6250849;23;20031;-82
2023/08/20 08:47:09;;;;;;;10.48;6.55;;;31.50;79.00;;;;;;6251346;23;20007;-82
2023/08/20 08:49:35;;;;;;;10.85;6.82;;;32.00;77.50;;;;;;6250858;23;20082;-81
2023/08/20 08:52:03;;;;;;;10.15;6.65;;;32.30;76.60;;;;;;6249483;23;20000;-80
2023/08/20 08:54:29;;;;;;;13.43;6.63;;;32.30;76.50;;;;;;6251195;23;20004;-80
2023/08/20 08:56:55;;;;;;;11.57;6.40;;;32.40;76.70;;;;;;6249941;23;20095;-80
2023/08/20 08:59:21;;;;;;;12.85;6.35;;;32.50;76.20;;;;;;6250260;23;20087;-82
2023/08/20 09:01:47;;;;;;;11.18;6.25;;;32.50;75.70;;;;;;6250788;23;20306;-83
2023/08/20 09:04:13;;;;;;;9.82;6.07;;;32.30;75.50;;;;;;6251111;23;20385;-83
2023/08/20 09:06:52;;;;;;;9.38;6.32;;;32.60;75.00;;;;;;6222978;23;20004;-83
2023/08/20 09:09:19;;;;;;;11.98;6.50;;;32.60;74.50;;;;;;6223589;23;20350;-83
2023/08/20 09:11:46;;;;;;;13.40;6.82;;;32.80;74.40;;;;;;6250810;23;20000;-83
2023/08/20 09:14:22;;;;;;;11.45;6.43;;;32.90;73.90;;;;;;6250238;23;20007;-83
2023/08/20 09:16:55;;;;;;;9.70;5.68;;;33.10;74.00;;;;;;6249595;23;20004;-83
2023/08/20 09:19:21;;;;;;;9.40;5.72;;;33.70;72.50;;;;;;6250621;23;20038;-83
2023/08/20 09:21:48;;;;;;;9.77;5.72;;;34.10;71.90;;;;;;6248801;23;20008;-83
2023/08/20 09:24:14;;;;;;;7.97;5.75;;;34.20;70.80;;;;;;6249841;23;20008;-83
2023/08/20 09:26:39;;;;;;;8.25;5.53;;;33.50;71.90;;;;;;6224318;23;20007;-83
2023/08/20 09:29:05;;;;;;;10.68;6.20;;;33.30;72.80;;;;;;6223790;23;20007;-83
2023/08/20 09:31:40;;;;;;;9.20;5.40;;;32.80;73.00;;;;;;6249533;23;20014;-83
2023/08/20 09:34:05;;;;;;;13.75;6.20;;;32.40;74.70;;;;;;6250038;23;20006;-82
2023/08/20 09:36:33;;;;;;;10.90;5.18;;;32.70;72.80;;;;;;6249226;23;20324;-82
2023/08/20 09:38:59;;;;;;;9.15;5.65;;;33.00;72.10;;;;;;6223676;23;19997;-82
2023/08/20 09:41:25;;;;;;;9.25;5.43;;;33.40;73.10;;;;;;6250292;23;20012;-81
2023/08/20 09:43:56;;;;;;;15.60;5.85;;;34.20;71.40;;;;;;6223529;23;20370;-81
2023/08/20 09:46:25;;;;;;;9.65;5.85;;;34.60;69.40;;;;;;6223031;23;20007;-81
2023/08/20 09:48:53;;;;;;;10.15;5.55;;;34.20;69.50;;;;;;6217199;23;20365;-81
2023/08/20 09:51:27;;;;;;;10.80;5.13;;;34.10;70.40;;;;;;6244787;23;20089;-82
2023/08/20 09:54:11;;;;;;;10.63;5.20;;;34.00;68.90;;;;;;6246814;23;20000;-81
2023/08/20 09:56:39;;;;;;;9.63;5.65;;;34.30;69.10;;;;;;6219140;23;20396;-81
2023/08/20 09:59:05;;;;;;;9.82;5.30;;;33.90;70.10;;;;;;6246454;23;20000;-81
2023/08/20 10:01:33;;;;;;;9.23;5.28;;;34.00;70.10;;;;;;6244642;23;20373;-80
2023/08/20 10:03:59;;;;;;;7.82;5.35;;;33.90;72.30;;;;;;6246793;23;20008;-80
2023/08/20 10:06:26;;;;;;;9.20;6.10;;;33.60;73.10;;;;;;6217403;23;20008;-81
2023/08/20 10:08:53;;;;;;;9.50;5.57;;;33.60;71.90;;;;;;6249983;23;20015;-81
2023/08/20 10:11:18;;;;;;;12.60;5.50;;;33.60;71.20;;;;;;6248940;23;20000;-81
2023/08/20 10:13:44;;;;;;;11.77;5.55;;;33.90;71.30;;;;;;6249741;23;19996;-80
2023/08/20 10:16:13;;;;;;;10.68;5.07;;;34.10;68.70;;;;;;6221805;23;20000;-81
2023/08/20 10:18:39;;;;;;;7.63;5.20;;;33.30;70.90;;;;;;6222515;23;20356;-80
2023/08/20 10:21:07;;;;;;;10.07;5.80;;;33.40;70.70;;;;;;6248473;23;20042;-81
2023/08/20 10:23:33;;;;;;;9.27;5.60;;;33.40;69.50;;;;;;6249482;23;19996;-82
2023/08/20 10:26:11;;;;;;;12.55;5.30;;;33.30;72.20;;;;;;6249805;23;20035;-82
2023/08/20 10:28:37;;;;;;;7.75;5.05;;;34.00;71.00;;;;;;6250148;23;20008;-82
2023/08/20 10:31:11;;;;;;;9.85;5.70;;;34.20;69.30;;;;;;6249819;23;20004;-82
2023/08/20 10:33:47;;;;;;;9.57;4.90;;;34.60;68.80;;;;;;6249389;23;20361;-82
2023/08/20 10:36:28;;;;;;;10.85;5.45;;;34.60;69.00;;;;;;6248392;23;19996;-82
2023/08/20 10:38:58;;;;;;;10.77;5.47;;;35.20;68.10;;;;;;6250056;23;20051;-82
2023/08/20 10:41:29;;;;;;;11.77;5.55;;;35.00;65.90;;;;;;6249586;23;20000;-82
2023/08/20 10:43:58;;;;;;;15.70;5.53;;;34.30;68.50;;;;;;6249631;23;20001;-82
2023/08/20 10:46:25;;;;;;;10.68;5.57;;;34.80;69.10;;;;;;6249526;23;20042;-82
2023/08/20 10:48:52;;;;;;;9.70;6.00;;;34.90;68.30;;;;;;6248671;23;20024;-81
2023/08/20 10:51:19;;;;;;;8.52;5.13;;;34.90;68.30;;;;;;6248310;23;20000;-82
2023/08/20 10:54:01;;;;;;;9.20;5.07;;;35.20;69.30;;;;;;6249647;23;19996;-82
2023/08/20 10:56:46;;;;;;;8.43;5.00;;;35.50;66.70;;;;;;6223180;23;20000;-82
2023/08/20 10:59:16;;;;;;;14.02;5.03;;;35.60;67.00;;;;;;6247936;23;20004;-82
2023/08/20 11:01:44;;;;;;;8.38;4.65;;;35.60;66.70;;;;;;6249173;23;20000;-82
2023/08/20 11:04:10;;;;;;;8.82;4.63;;;35.70;65.80;;;;;;6249338;23;20358;-82
2023/08/20 11:06:36;;;;;;;10.00;4.90;;;36.00;65.90;;;;;;6221866;23;20000;-82
2023/08/20 11:09:05;;;;;;;13.93;4.93;;;36.20;64.20;;;;;;6248949;23;20007;-81
2023/08/20 11:11:31;;;;;;;8.20;4.30;;;35.90;64.70;;;;;;6248693;23;20000;-82
2023/08/20 11:14:03;;;;;;;13.23;4.25;;;36.00;64.60;;;;;;6249610;23;20318;-81
2023/08/20 11:16:29;;;;;;;9.48;4.38;;;36.50;63.10;;;;;;6249821;23;19996;-81
2023/08/20 11:18:54;;;;;;;13.95;4.85;;;36.30;62.90;;;;;;6248682;23;20004;-81
2023/08/20 11:21:20;;;;;;;10.73;5.00;;;35.80;63.60;;;;;;6248080;23;20027;-81
2023/08/20 11:23:47;;;;;;;8.80;4.65;;;36.00;63.60;;;;;;6249737;23;20358;-81
2023/08/20 11:26:12;;;;;;;9.15;4.70;;;35.60;65.40;;;;;;6248408;23;20000;-81
2023/08/20 11:28:38;;;;;;;10.93;4.80;;;35.50;63.10;;;;;;6248362;23;20057;-81
2023/08/20 11:31:03;;;;;;;7.32;4.53;;;35.40;63.90;;;;;;6248514;23;20015;-82
2023/08/20 11:33:29;;;;;;;10.63;4.97;;;35.50;64.70;;;;;;6221750;23;20000;-82
2023/08/20 11:35:56;;;;;;;11.00;4.95;;;35.50;65.60;;;;;;6249584;23;20000;-80
2023/08/20 11:38:24;;;;;;;10.35;4.47;;;35.40;64.60;;;;;;6251778;23;20004;-80
2023/08/20 11:40:50;;;;;;;8.68;4.68;;;34.90;64.90;;;;;;6251751;23;20023;-80
2023/08/20 11:43:16;;;;;;;9.60;5.25;;;34.90;65.40;;;;;;6226225;23;20269;-80
2023/08/20 11:45:47;;;;;;;9.32;4.75;;;35.20;64.80;;;;;;6252756;23;20008;-81
2023/08/20 11:48:13;;;;;;;11.27;4.88;;;35.30;61.50;;;;;;6252260;23;20042;-81
2023/08/20 11:50:40;;;;;;;9.90;5.10;;;34.90;65.90;;;;;;6250003;23;20369;-81
2023/08/20 11:53:10;;;;;;;10.02;5.05;;;35.00;67.10;;;;;;6252291;23;20000;-81
2023/08/20 11:55:39;;;;;;;9.43;5.18;;;34.80;67.30;;;;;;6251853;23;19996;-80
2023/08/20 11:58:04;;;;;;;6.28;4.30;;;34.70;67.80;;;;;;6252908;23;20079;-80
2023/08/20 12:00:31;;;;;;;10.93;5.03;;;35.00;67.60;;;;;;6252961;23;20028;-81
2023/08/20 12:02:57;;;;;;;9.77;5.32;;;35.10;67.10;;;;;;6251880;23;20075;-81
2023/08/20 12:05:27;;;;;;;7.80;5.40;;;35.00;66.60;;;;;;6218919;23;20285;-81
2023/08/20 12:08:01;;;;;;;9.50;5.57;;;34.90;67.20;;;;;;6246175;23;20098;-80
2023/08/20 12:10:28;;;;;;;9.95;5.28;;;34.50;66.40;;;;;;6248260;23;20008;-80
2023/08/20 12:12:55;;;;;;;10.98;4.95;;;34.20;69.70;;;;;;6247800;23;20447;-81
2023/08/20 12:15:21;;;;;;;11.80;5.45;;;34.50;68.20;;;;;;6249371;23;20027;-81
2023/08/20 12:18:00;;;;;;;11.60;5.75;;;34.30;67.80;;;;;;6247748;23;20004;-80
2023/08/20 12:20:28;;;;;;;12.40;6.65;;;33.70;67.60;;;;;;6246731;23;20039;-80
2023/08/20 12:22:54;;;;;;;10.73;5.93;;;33.20;69.00;;;;;;6221832;23;20008;-79
2023/08/20 12:25:20;;;;;;;12.10;5.65;;;33.10;69.90;;;;;;6248782;23;20054;-82
2023/08/20 12:27:45;;;;;;;11.02;5.25;;;33.80;68.40;;;;;;6248912;23;20388;-81
2023/08/20 12:30:11;;;;;;;7.70;5.00;;;34.00;68.70;;;;;;6248166;23;20004;-80
2023/08/20 12:32:41;;;;;;;10.40;5.30;;;34.30;67.40;;;;;;6221184;23;20001;-80